sensor_id;sensor_type;location;lat;lon;timestamp;temperature;humidity
45735;DHT22;31446;49.632;8.328;2024-02-23T00:13:05;15.40;99.90
45735;DHT22;31446;49.632;8.328;2024-02-23T00:28:11;15.30;99.90
45735;DHT22;31446;49.632;8.328;2024-02-23T00:43:19;15.30;99.90
45735;DHT22;31446;49.632;8.328;2024-02-23T00:58:25;15.20;99.90
45735;DHT22;31446;49.632;8.328;2024-02-23T01:13:31;15.20;99.90
45735;DHT22;31446;49.632;8.328;2024-02-23T01:28:38;15.20;99.90
45735;DHT22;31446;49.632;8.328;2024-02-23T01:43:44;15.10;99.90
45735;DHT22;31446;49.632;8.328;2024-02-23T01:58:50;15.10;99.90
45735;DHT22;31446;49.632;8.328;2024-02-23T02:13:56;15.10;99.90
45735;DHT22;31446;49.632;8.328;2024-02-23T02:29:02;15.10;99.90
45735;DHT22;31446;49.632;8.328;2024-02-23T02:44:08;15.00;99.90
45735;DHT22;31446;49.632;8.328;2024-02-23T02:59:16;15.00;99.90
45735;DHT22;31446;49.632;8.328;2024-02-23T03:14:22;15.00;99.90
45735;DHT22;31446;49.632;8.328;2024-02-23T03:29:28;15.00;99.90
45735;DHT22;31446;49.632;8.328;2024-02-23T03:44:35;15.00;99.90
45735;DHT22;31446;49.632;8.328;2024-02-23T03:59:51;15.00;99.90
45735;DHT22;31446;49.632;8.328;2024-02-23T04:14:57;15.00;99.90
45735;DHT22;31446;49.632;8.328;2024-02-23T04:30:05;14.90;99.90
45735;DHT22;31446;49.632;8.328;2024-02-23T04:45:11;14.90;99.90
45735;DHT22;31446;49.632;8.328;2024-02-23T05:00:18;14.90;99.90
45735;DHT22;31446;49.632;8.328;2024-02-23T05:15:24;14.90;99.90
45735;DHT22;31446;49.632;8.328;2024-02-23T05:30:30;15.30;99.90
45735;DHT22;31446;49.632;8.328;2024-02-23T05:45:36;16.10;99.90
45735;DHT22;31446;49.632;8.328;2024-02-23T06:00:42;16.60;99.90
45735;DHT22;31446;49.632;8.328;2024-02-23T06:15:48;17.20;99.90
45735;DHT22;31446;49.632;8.328;2024-02-23T06:30:54;17.80;99.90
45735;DHT22;31446;49.632;8.328;2024-02-23T06:46:04;17.60;99.90
45735;DHT22;31446;49.632;8.328;2024-02-23T07:01:10;17.70;99.90
45735;DHT22;31446;49.632;8.328;2024-02-23T07:16:17;10.60;99.90
45735;DHT22;31446;49.632;8.328;2024-02-23T07:31:23;7.30;99.90
45735;DHT22;31446;49.632;8.328;2024-02-23T07:46:29;7.00;99.90
45735;DHT22;31446;49.632;8.328;2024-02-23T08:01:35;7.00;99.90
45735;DHT22;31446;49.632;8.328;2024-02-23T08:16:43;7.00;99.90
45735;DHT22;31446;49.632;8.328;2024-02-23T08:31:49;7.60;99.90
45735;DHT22;31446;49.632;8.328;2024-02-23T08:46:55;8.00;99.90
45735;DHT22;31446;49.632;8.328;2024-02-23T09:02:02;8.50;99.90
45735;DHT22;31446;49.632;8.328;2024-02-23T09:17:09;9.10;99.90
45735;DHT22;31446;49.632;8.328;2024-02-23T09:32:15;9.90;99.90
45735;DHT22;31446;49.632;8.328;2024-02-23T09:47:22;9.90;99.90
45735;DHT22;31446;49.632;8.328;2024-02-23T10:02:29;9.30;99.90
45735;DHT22;31446;49.632;8.328;2024-02-23T10:17:35;9.20;99.90
45735;DHT22;31446;49.632;8.328;2024-02-23T10:32:41;9.80;99.90
45735;DHT22;31446;49.632;8.328;2024-02-23T10:47:48;9.60;99.90
45735;DHT22;31446;49.632;8.328;2024-02-23T11:02:55;10.20;99.90
45735;DHT22;31446;49.632;8.328;2024-02-23T11:18:01;10.00;99.90
45735;DHT22;31446;49.632;8.328;2024-02-23T11:33:09;10.40;99.90
45735;DHT22;31446;49.632;8.328;2024-02-23T11:48:15;10.40;99.90
45735;DHT22;31446;49.632;8.328;2024-02-23T12:03:21;10.30;99.90
45735;DHT22;31446;49.632;8.328;2024-02-23T12:18:28;10.50;99.90
45735;DHT22;31446;49.632;8.328;2024-02-23T12:33:36;10.20;99.90
45735;DHT22;31446;49.632;8.328;2024-02-23T12:48:43;11.90;99.90
45735;DHT22;31446;49.632;8.328;2024-02-23T13:03:49;11.70;99.90
45735;DHT22;31446;49.632;8.328;2024-02-23T13:18:55;10.70;99.90
45735;DHT22;31446;49.632;8.328;2024-02-23T13:34:01;10.50;99.90
45735;DHT22;31446;49.632;8.328;2024-02-23T13:49:07;9.60;99.90
45735;DHT22;31446;49.632;8.328;2024-02-23T14:04:18;10.20;99.90
45735;DHT22;31446;49.632;8.328;2024-02-23T14:19:24;10.70;99.90
45735;DHT22;31446;49.632;8.328;2024-02-23T14:34:31;11.00;99.90
45735;DHT22;31446;49.632;8.328;2024-02-23T14:49:38;11.50;99.90
45735;DHT22;31446;49.632;8.328;2024-02-23T15:04:44;11.00;99.90
45735;DHT22;31446;49.632;8.328;2024-02-23T15:19:50;12.00;99.90
45735;DHT22;31446;49.632;8.328;2024-02-23T15:34:57;12.30;99.90
45735;DHT22;31446;49.632;8.328;2024-02-23T15:50:03;12.00;99.90
45735;DHT22;31446;49.632;8.328;2024-02-23T16:05:09;10.60;99.90
45735;DHT22;31446;49.632;8.328;2024-02-23T16:20:16;10.00;99.90
45735;DHT22;31446;49.632;8.328;2024-02-23T16:35:22;9.70;99.90
45735;DHT22;31446;49.632;8.328;2024-02-23T16:50:28;9.40;99.90
45735;DHT22;31446;49.632;8.328;2024-02-23T17:05:34;9.20;99.90
45735;DHT22;31446;49.632;8.328;2024-02-23T17:20:40;9.00;99.90
45735;DHT22;31446;49.632;8.328;2024-02-23T17:35:47;8.80;99.90
45735;DHT22;31446;49.632;8.328;2024-02-23T17:50:53;8.50;99.90
45735;DHT22;31446;49.632;8.328;2024-02-23T18:05:59;8.30;99.90
45735;DHT22;31446;49.632;8.328;2024-02-23T18:21:06;8.20;99.90
45735;DHT22;31446;49.632;8.328;2024-02-23T18:36:14;8.20;99.90
45735;DHT22;31446;49.632;8.328;2024-02-23T18:51:21;8.00;99.90
45735;DHT22;31446;49.632;8.328;2024-02-23T19:06:29;7.90;99.90
45735;DHT22;31446;49.632;8.328;2024-02-23T19:21:35;7.80;99.90
45735;DHT22;31446;49.632;8.328;2024-02-23T19:36:41;7.40;99.90
45735;DHT22;31446;49.632;8.328;2024-02-23T19:51:47;7.30;99.90
45735;DHT22;31446;49.632;8.328;2024-02-23T20:06:53;7.40;99.90
45735;DHT22;31446;49.632;8.328;2024-02-23T20:22:00;7.10;99.90
45735;DHT22;31446;49.632;8.328;2024-02-23T20:37:06;6.80;99.90
45735;DHT22;31446;49.632;8.328;2024-02-23T20:52:12;6.60;99.90
45735;DHT22;31446;49.632;8.328;2024-02-23T21:07:20;6.50;99.90
45735;DHT22;31446;49.632;8.328;2024-02-23T21:22:26;6.00;99.90
45735;DHT22;31446;49.632;8.328;2024-02-23T21:37:32;6.00;99.90
45735;DHT22;31446;49.632;8.328;2024-02-23T21:52:39;5.70;99.90
45735;DHT22;31446;49.632;8.328;2024-02-23T22:07:45;5.60;99.90
45735;DHT22;31446;49.632;8.328;2024-02-23T22:22:52;5.80;99.90
45735;DHT22;31446;49.632;8.328;2024-02-23T22:37:58;6.00;99.90
45735;DHT22;31446;49.632;8.328;2024-02-23T22:53:05;5.90;99.90
45735;DHT22;31446;49.632;8.328;2024-02-23T23:08:13;6.10;99.90
45735;DHT22;31446;49.632;8.328;2024-02-23T23:23:19;5.90;99.90
45735;DHT22;31446;49.632;8.328;2024-02-23T23:38:26;5.30;99.90
45735;DHT22;31446;49.632;8.328;2024-02-23T23:53:32;4.80;99.90
